Aviation Digital Data Service (ADDS)

Output produced by TAFs form (1232 UTC 06 March 2015)
found at http://www.aviationweather.gov/adds/tafs/
 
KMDT 061144Z 0612/0712 36003KT P6SM SKC 
     FM070100 30004KT P6SM SKC